createdAt,value
2023-02-28T00:00:23.859Z,85.90
2023-02-28T00:02:26.684Z,84.70
2023-02-28T00:04:29.492Z,85.39
2023-02-28T00:06:32.332Z,85.03
2023-02-28T00:08:35.540Z,84.03
2023-02-28T00:10:40.502Z,83.89
2023-02-28T00:12:43.406Z,83.95
2023-02-28T00:14:46.184Z,84.00
2023-02-28T00:16:48.992Z,84.44
2023-02-28T00:18:52.042Z,84.64
2023-02-28T00:20:54.856Z,84.34
2023-02-28T00:22:58.034Z,85.23
2023-02-28T00:25:00.766Z,84.13
2023-02-28T00:27:04.969Z,85.58
2023-02-28T00:29:07.737Z,84.66
2023-02-28T00:31:10.524Z,84.37
2023-02-28T00:33:13.531Z,83.63
2023-02-28T00:35:16.823Z,85.00
2023-02-28T00:37:19.660Z,85.56
2023-02-28T00:39:22.800Z,84.31
2023-02-28T00:41:25.553Z,84.65
2023-02-28T00:43:29.680Z,84.42
2023-02-28T00:45:32.615Z,84.58
2023-02-28T00:47:35.452Z,84.83
2023-02-28T00:49:38.311Z,85.64
2023-02-28T00:51:41.021Z,86.57
2023-02-28T00:53:43.700Z,87.10
2023-02-28T00:55:46.415Z,85.70
2023-02-28T00:57:49.133Z,86.41
2023-02-28T00:59:55.137Z,86.54
2023-02-28T01:01:57.865Z,86.62
2023-02-28T01:04:00.616Z,88.35
2023-02-28T01:06:03.369Z,87.68
2023-02-28T01:08:07.268Z,89.11
2023-02-28T01:10:11.604Z,88.22
2023-02-28T01:12:14.362Z,90.53
2023-02-28T01:14:18.949Z,90.61
2023-02-28T01:16:23.954Z,90.41
2023-02-28T01:18:27.046Z,90.41
2023-02-28T01:20:29.805Z,90.08
2023-02-28T01:22:32.528Z,90.77
2023-02-28T01:24:35.330Z,92.33
2023-02-28T01:26:38.108Z,92.70
2023-02-28T01:28:43.822Z,94.00
2023-02-28T01:30:50.119Z,94.95
2023-02-28T01:32:54.491Z,95.38
2023-02-28T01:34:57.243Z,94.76
2023-02-28T01:37:00.510Z,94.49
2023-02-28T01:39:03.227Z,94.22
2023-02-28T01:41:06.737Z,94.33
2023-02-28T01:43:22.272Z,95.10
2023-02-28T01:45:29.202Z,96.18
2023-02-28T01:47:35.068Z,95.49
2023-02-28T01:49:39.424Z,95.15
2023-02-28T01:51:51.473Z,96.40
2023-02-28T01:53:58.487Z,96.32
2023-02-28T01:56:02.102Z,96.28
2023-02-28T01:58:08.154Z,96.11
2023-02-28T02:00:15.329Z,95.53
2023-02-28T02:02:25.340Z,97.43
2023-02-28T02:04:34.386Z,97.20
2023-02-28T02:06:42.409Z,97.19
2023-02-28T02:08:46.601Z,97.10
2023-02-28T02:10:54.308Z,98.13
2023-02-28T02:13:13.767Z,97.13
2023-02-28T02:15:19.295Z,97.62
2023-02-28T02:17:30.328Z,97.86
2023-02-28T02:19:55.387Z,97.56
2023-02-28T02:22:23.831Z,98.43
2023-02-28T02:24:49.980Z,99.66
2023-02-28T02:27:22.331Z,100.00
2023-02-28T02:29:56.337Z,100.00
2023-02-28T02:32:25.052Z,100.00
2023-02-28T02:34:42.390Z,100.00
2023-02-28T02:36:53.087Z,100.00
2023-02-28T02:39:04.016Z,100.00
2023-02-28T02:41:14.874Z,100.00
2023-02-28T02:43:22.561Z,100.00
2023-02-28T02:45:29.276Z,100.00
2023-02-28T02:47:34.209Z,100.00
2023-02-28T02:49:43.929Z,100.00
2023-02-28T02:51:49.581Z,100.00
2023-02-28T02:53:57.529Z,100.00
2023-02-28T02:56:03.620Z,100.00
2023-02-28T02:58:12.816Z,100.00
2023-02-28T03:00:19.632Z,100.00
2023-02-28T03:02:26.185Z,100.00
2023-02-28T03:04:35.051Z,100.00
2023-02-28T03:06:39.268Z,100.00
2023-02-28T03:08:41.998Z,100.00
2023-02-28T03:10:47.632Z,100.00
2023-02-28T03:13:04.288Z,100.00
2023-02-28T03:15:20.391Z,100.00
2023-02-28T03:17:40.389Z,100.00
2023-02-28T03:19:53.523Z,100.00
2023-02-28T03:22:15.679Z,100.00
2023-02-28T03:24:25.275Z,100.00
2023-02-28T03:26:29.554Z,100.00
2023-02-28T03:28:41.197Z,100.00
2023-02-28T03:30:54.798Z,100.00
2023-02-28T03:33:00.474Z,100.00
2023-02-28T03:35:09.489Z,100.00
2023-02-28T03:37:20.247Z,100.00
2023-02-28T03:39:26.377Z,100.00
2023-02-28T03:41:35.019Z,100.00
2023-02-28T03:43:42.947Z,100.00
2023-02-28T03:45:48.354Z,100.00
2023-02-28T03:47:55.571Z,100.00
2023-02-28T03:50:03.539Z,100.00
2023-02-28T03:52:09.347Z,100.00
2023-02-28T03:54:17.796Z,100.00
2023-02-28T03:56:24.641Z,100.00
2023-02-28T03:58:32.815Z,100.00
2023-02-28T04:00:40.171Z,100.00
2023-02-28T04:02:43.072Z,100.00
2023-02-28T04:04:46.126Z,100.00
2023-02-28T04:06:52.354Z,100.00
2023-02-28T04:08:55.201Z,100.00
2023-02-28T04:11:04.110Z,100.00
2023-02-28T04:13:06.835Z,100.00
2023-02-28T04:15:11.490Z,100.00
2023-02-28T04:17:14.265Z,100.00
2023-02-28T04:19:17.336Z,100.00
2023-02-28T04:21:22.071Z,100.00
2023-02-28T04:23:24.854Z,100.00
2023-02-28T04:25:27.561Z,100.00
2023-02-28T04:27:32.851Z,100.00
2023-02-28T04:29:35.661Z,100.00
2023-02-28T04:31:38.899Z,100.00
2023-02-28T04:33:41.793Z,100.00
2023-02-28T04:35:44.525Z,100.00
2023-02-28T04:37:47.273Z,100.00
2023-02-28T04:39:50.022Z,100.00
2023-02-28T04:41:52.867Z,100.00
2023-02-28T04:43:57.619Z,100.00
2023-02-28T04:46:04.067Z,100.00
2023-02-28T04:48:06.887Z,100.00
2023-02-28T04:50:10.863Z,100.00
2023-02-28T04:52:14.237Z,100.00
2023-02-28T04:54:17.064Z,100.00
2023-02-28T04:56:20.360Z,100.00
2023-02-28T04:58:24.003Z,100.00
2023-02-28T05:00:28.293Z,100.00
2023-02-28T05:02:31.121Z,100.00
2023-02-28T05:04:35.154Z,100.00
2023-02-28T05:06:38.010Z,100.00
2023-02-28T05:08:41.311Z,100.00
2023-02-28T05:10:44.071Z,100.00
2023-02-28T05:12:46.866Z,100.00
2023-02-28T05:14:49.593Z,100.00
2023-02-28T05:16:53.807Z,100.00
2023-02-28T05:18:56.616Z,100.00
2023-02-28T05:20:59.545Z,100.00
2023-02-28T05:23:04.401Z,100.00
2023-02-28T05:25:08.724Z,100.00
2023-02-28T05:27:11.911Z,100.00
2023-02-28T05:29:14.709Z,100.00
2023-02-28T05:31:17.881Z,100.00
2023-02-28T05:33:21.958Z,100.00
2023-02-28T05:35:25.116Z,100.00
2023-02-28T05:37:27.968Z,100.00
2023-02-28T05:39:30.695Z,100.00
2023-02-28T05:41:33.479Z,100.00
2023-02-28T05:43:36.572Z,100.00
2023-02-28T05:45:39.299Z,100.00
2023-02-28T05:47:42.027Z,100.00
2023-02-28T05:49:46.057Z,100.00
2023-02-28T05:51:48.737Z,100.00
2023-02-28T05:53:51.458Z,100.00
2023-02-28T05:55:54.222Z,100.00
2023-02-28T05:57:57.368Z,100.00
2023-02-28T06:00:00.125Z,100.00
2023-02-28T06:02:02.885Z,100.00
2023-02-28T06:04:08.323Z,100.00
2023-02-28T06:06:12.918Z,100.00
2023-02-28T06:08:15.664Z,100.00
2023-02-28T06:10:18.489Z,100.00
2023-02-28T06:12:21.260Z,100.00
2023-02-28T06:14:24.011Z,100.00
2023-02-28T06:16:27.191Z,100.00
2023-02-28T06:18:30.072Z,100.00
2023-02-28T06:20:32.844Z,100.00
2023-02-28T06:22:37.495Z,100.00
2023-02-28T06:24:40.208Z,100.00
2023-02-28T06:26:42.950Z,100.00
2023-02-28T06:28:45.694Z,100.00
2023-02-28T06:30:48.472Z,100.00
2023-02-28T06:32:51.283Z,100.00
2023-02-28T06:34:54.291Z,100.00
2023-02-28T06:36:57.027Z,100.00
2023-02-28T06:39:01.145Z,100.00
2023-02-28T06:41:05.227Z,100.00
2023-02-28T06:43:08.000Z,100.00
2023-02-28T06:45:11.777Z,100.00
2023-02-28T06:47:14.530Z,100.00
2023-02-28T06:49:17.574Z,100.00
2023-02-28T06:51:23.216Z,100.00
2023-02-28T06:53:26.142Z,100.00
2023-02-28T06:55:30.811Z,100.00
2023-02-28T06:57:35.279Z,100.00
2023-02-28T06:59:38.158Z,100.00
2023-02-28T07:01:41.101Z,100.00
2023-02-28T07:03:43.964Z,100.00
2023-02-28T07:05:47.206Z,100.00
2023-02-28T07:07:49.971Z,100.00
2023-02-28T07:09:52.724Z,100.00
2023-02-28T07:11:56.780Z,100.00
2023-02-28T07:14:00.139Z,100.00
2023-02-28T07:16:04.586Z,100.00
2023-02-28T07:18:07.355Z,100.00
2023-02-28T07:20:11.137Z,100.00
2023-02-28T07:22:15.875Z,100.00
2023-02-28T07:24:19.021Z,100.00
2023-02-28T07:26:22.442Z,100.00
2023-02-28T07:28:26.917Z,100.00
2023-02-28T07:30:29.817Z,100.00
2023-02-28T07:32:32.539Z,100.00
2023-02-28T07:34:35.290Z,100.00
2023-02-28T07:36:37.992Z,100.00
2023-02-28T07:38:40.718Z,100.00
2023-02-28T07:40:43.538Z,100.00
2023-02-28T07:42:46.604Z,100.00
2023-02-28T07:44:54.596Z,100.00
2023-02-28T07:46:57.364Z,100.00
2023-02-28T07:49:00.959Z,100.00
2023-02-28T07:51:04.512Z,100.00
2023-02-28T07:53:07.249Z,100.00
2023-02-28T07:55:11.322Z,100.00
2023-02-28T07:57:14.128Z,100.00
2023-02-28T07:59:16.878Z,100.00
2023-02-28T08:01:21.386Z,100.00
2023-02-28T08:03:25.168Z,100.00
2023-02-28T08:05:27.925Z,100.00
2023-02-28T08:07:30.670Z,100.00
2023-02-28T08:09:33.544Z,100.00
2023-02-28T08:11:37.234Z,100.00
2023-02-28T08:13:40.013Z,100.00
2023-02-28T08:15:43.151Z,100.00
2023-02-28T08:17:47.293Z,100.00
2023-02-28T08:19:51.221Z,100.00
2023-02-28T08:21:53.975Z,100.00
2023-02-28T08:23:57.784Z,100.00
2023-02-28T08:26:00.524Z,100.00
2023-02-28T08:28:03.336Z,100.00
2023-02-28T08:30:07.139Z,100.00
2023-02-28T08:32:23.561Z,100.00
2023-02-28T08:34:32.863Z,100.00
2023-02-28T08:36:35.624Z,100.00
2023-02-28T08:38:39.342Z,100.00
2023-02-28T08:40:42.393Z,100.00
2023-02-28T08:42:45.078Z,100.00
2023-02-28T08:44:47.911Z,100.00
2023-02-28T08:46:50.642Z,100.00
2023-02-28T08:48:54.558Z,100.00
2023-02-28T08:51:07.117Z,100.00
2023-02-28T08:53:10.660Z,100.00
2023-02-28T08:55:13.393Z,100.00
2023-02-28T08:57:16.177Z,100.00
2023-02-28T08:59:18.920Z,100.00
2023-02-28T09:01:24.039Z,100.00
2023-02-28T09:03:27.948Z,100.00
2023-02-28T09:05:30.920Z,100.00
2023-02-28T09:07:34.980Z,100.00
2023-02-28T09:09:37.719Z,100.00
2023-02-28T09:11:40.452Z,100.00
2023-02-28T09:13:43.392Z,99.91
2023-02-28T09:15:46.474Z,100.00
2023-02-28T09:17:49.219Z,99.94
2023-02-28T09:19:51.932Z,99.37
2023-02-28T09:21:54.666Z,99.18
2023-02-28T09:23:58.887Z,99.31
2023-02-28T09:26:01.694Z,98.19
2023-02-28T09:28:05.273Z,98.98
2023-02-28T09:30:09.899Z,99.20
2023-02-28T09:32:12.651Z,98.67
2023-02-28T09:34:15.423Z,98.25
2023-02-28T09:36:18.272Z,98.37
2023-02-28T09:38:21.038Z,98.60
2023-02-28T09:40:27.676Z,97.61
2023-02-28T09:42:34.385Z,97.05
2023-02-28T09:44:41.558Z,97.64
2023-02-28T09:46:48.089Z,95.77
2023-02-28T09:48:52.536Z,95.46
2023-02-28T09:51:02.957Z,95.44
2023-02-28T09:53:13.187Z,94.17
2023-02-28T09:55:23.935Z,93.54
2023-02-28T09:57:35.898Z,93.39
2023-02-28T10:00:00.709Z,92.31
2023-02-28T10:02:13.142Z,90.43
2023-02-28T10:04:31.326Z,90.60
2023-02-28T10:06:38.791Z,90.01
2023-02-28T10:08:48.157Z,88.97
2023-02-28T10:10:54.353Z,87.75
2023-02-28T10:13:01.073Z,86.60
2023-02-28T10:15:05.689Z,87.70
2023-02-28T10:17:14.548Z,87.20
2023-02-28T10:19:22.631Z,87.08
2023-02-28T10:21:29.944Z,86.57
2023-02-28T10:23:37.565Z,86.73
2023-02-28T10:25:41.687Z,87.18
2023-02-28T10:27:45.045Z,86.21
2023-02-28T10:29:51.415Z,84.89
2023-02-28T10:31:54.173Z,84.84
2023-02-28T10:33:57.215Z,83.01
2023-02-28T10:36:00.331Z,82.63
2023-02-28T10:38:16.634Z,81.40
2023-02-28T10:40:33.696Z,82.33
2023-02-28T10:42:39.884Z,81.33
2023-02-28T10:44:42.694Z,80.80
2023-02-28T10:46:47.643Z,80.38
2023-02-28T10:49:02.466Z,80.84
2023-02-28T10:51:07.806Z,80.47
2023-02-28T10:53:36.178Z,79.24
2023-02-28T10:55:44.844Z,79.99
2023-02-28T10:57:49.134Z,79.58
2023-02-28T10:59:53.400Z,78.76
2023-02-28T11:01:58.054Z,77.62
2023-02-28T11:04:01.219Z,78.81
2023-02-28T11:06:09.850Z,78.87
2023-02-28T11:08:16.060Z,78.72
2023-02-28T11:10:22.888Z,76.98
2023-02-28T11:12:29.189Z,76.24
2023-02-28T11:14:35.181Z,75.27
2023-02-28T11:16:39.628Z,74.64
2023-02-28T11:18:49.586Z,74.15
2023-02-28T11:20:55.465Z,73.62
2023-02-28T11:22:59.659Z,77.06
2023-02-28T11:25:04.515Z,75.86
2023-02-28T11:27:08.357Z,74.65
2023-02-28T11:29:15.279Z,73.40
2023-02-28T11:31:23.266Z,72.77
2023-02-28T11:33:30.485Z,71.69
2023-02-28T11:35:40.329Z,70.65
2023-02-28T11:37:43.233Z,70.77
2023-02-28T11:39:47.022Z,71.30
2023-02-28T11:42:04.163Z,71.40
2023-02-28T11:44:25.059Z,70.50
2023-02-28T11:46:35.811Z,69.91
2023-02-28T11:48:48.538Z,69.73
2023-02-28T11:51:04.192Z,69.08
2023-02-28T11:53:16.585Z,68.87
2023-02-28T11:55:23.354Z,69.48
2023-02-28T11:57:38.108Z,69.33
2023-02-28T11:59:56.204Z,68.92
2023-02-28T12:02:18.284Z,69.16
2023-02-28T12:04:29.287Z,68.08
2023-02-28T12:06:41.237Z,68.71
2023-02-28T12:08:52.319Z,66.57
2023-02-28T12:11:06.619Z,65.42
2023-02-28T12:13:20.784Z,64.42
2023-02-28T12:15:37.886Z,63.22
2023-02-28T12:17:53.239Z,63.12
2023-02-28T12:20:09.942Z,62.37
2023-02-28T12:22:32.046Z,63.06
2023-02-28T12:25:06.351Z,61.00
2023-02-28T12:27:13.964Z,61.03
2023-02-28T12:29:22.632Z,59.59
2023-02-28T12:31:31.332Z,59.40
2023-02-28T12:33:37.557Z,57.38
2023-02-28T12:35:48.289Z,54.56
2023-02-28T12:37:59.713Z,51.92
2023-02-28T12:40:07.380Z,50.96
2023-02-28T12:42:15.268Z,49.85
2023-02-28T12:44:22.473Z,49.06
2023-02-28T12:46:30.093Z,48.74
2023-02-28T12:48:39.478Z,47.55
2023-02-28T12:50:42.617Z,48.71
2023-02-28T12:52:55.467Z,49.25
2023-02-28T12:55:05.751Z,49.33
2023-02-28T12:57:14.988Z,49.28
2023-02-28T12:59:26.718Z,47.89
2023-02-28T13:01:48.778Z,46.85
2023-02-28T13:04:21.308Z,45.13
2023-02-28T13:06:47.480Z,45.44
2023-02-28T13:09:06.975Z,42.75
2023-02-28T13:11:26.247Z,42.97
2023-02-28T13:13:31.490Z,45.29
2023-02-28T13:15:39.075Z,43.64
2023-02-28T13:17:43.193Z,42.01
2023-02-28T13:19:49.597Z,41.69
2023-02-28T13:21:53.501Z,43.03
2023-02-28T13:24:02.464Z,44.21
2023-02-28T13:26:05.593Z,44.85
2023-02-28T13:28:13.778Z,46.10
2023-02-28T13:30:54.013Z,46.18
2023-02-28T13:33:25.615Z,44.96
2023-02-28T13:35:39.994Z,42.60
2023-02-28T13:37:45.640Z,43.57
2023-02-28T13:39:50.749Z,43.48
2023-02-28T13:41:53.510Z,43.20
2023-02-28T13:44:06.961Z,43.14
2023-02-28T13:46:14.036Z,43.21
2023-02-28T13:48:20.007Z,43.17
2023-02-28T13:50:29.212Z,43.02
2023-02-28T13:52:32.065Z,44.79
2023-02-28T13:54:47.320Z,43.68
2023-02-28T13:56:59.769Z,42.25
2023-02-28T13:59:14.728Z,40.83
2023-02-28T14:01:29.817Z,40.79
2023-02-28T14:03:47.109Z,39.80
2023-02-28T14:06:10.977Z,40.03
2023-02-28T14:08:18.830Z,40.58
2023-02-28T14:10:31.136Z,40.15
2023-02-28T14:12:55.500Z,39.47
2023-02-28T14:14:59.561Z,39.70
2023-02-28T14:17:04.840Z,39.58
2023-02-28T14:19:15.023Z,39.79
2023-02-28T14:21:26.615Z,39.13
2023-02-28T14:23:41.675Z,40.62
2023-02-28T14:25:55.496Z,40.79
2023-02-28T14:28:11.902Z,41.03
2023-02-28T14:30:44.301Z,40.52
2023-02-28T14:32:53.334Z,41.08
2023-02-28T14:35:05.304Z,41.67
2023-02-28T14:37:15.502Z,40.50
2023-02-28T14:39:23.407Z,40.58
2023-02-28T14:41:36.202Z,41.15
2023-02-28T14:43:39.752Z,40.57
2023-02-28T14:45:43.968Z,39.66
2023-02-28T14:47:46.838Z,38.68
2023-02-28T14:49:49.911Z,40.02
2023-02-28T14:52:05.400Z,41.63
2023-02-28T14:54:08.468Z,41.72
2023-02-28T14:56:22.836Z,40.58
2023-02-28T14:58:27.520Z,40.33
2023-02-28T15:00:32.492Z,39.85
2023-02-28T15:02:37.640Z,40.31
2023-02-28T15:04:42.833Z,41.42
2023-02-28T15:06:45.535Z,41.37
2023-02-28T15:08:48.294Z,40.71
2023-02-28T15:10:56.679Z,41.18
2023-02-28T15:13:02.242Z,40.86
2023-02-28T15:15:05.898Z,40.13
2023-02-28T15:17:17.382Z,39.64
2023-02-28T15:19:26.319Z,39.97
2023-02-28T15:21:32.896Z,39.46
2023-02-28T15:23:38.291Z,40.76
2023-02-28T15:25:42.816Z,39.81
2023-02-28T15:27:51.158Z,39.56
2023-02-28T15:29:58.776Z,41.76
2023-02-28T15:32:03.919Z,41.31
2023-02-28T15:34:08.562Z,40.73
2023-02-28T15:36:18.507Z,40.21
2023-02-28T15:38:27.457Z,39.84
2023-02-28T15:40:32.816Z,40.27
2023-02-28T15:42:35.595Z,39.79
2023-02-28T15:44:47.504Z,39.99
2023-02-28T15:46:58.956Z,39.66
2023-02-28T15:49:01.774Z,39.71
2023-02-28T15:51:09.457Z,39.68
2023-02-28T15:53:18.150Z,40.07
2023-02-28T15:55:23.924Z,39.93
2023-02-28T15:57:29.879Z,39.96
2023-02-28T15:59:33.466Z,40.77
2023-02-28T16:01:40.392Z,40.28
2023-02-28T16:03:47.099Z,39.84
2023-02-28T16:06:23.813Z,42.62
2023-02-28T16:08:26.623Z,41.61
2023-02-28T16:10:31.767Z,41.34
2023-02-28T16:12:38.043Z,42.36
2023-02-28T16:14:41.277Z,43.18
2023-02-28T16:16:47.048Z,43.87
2023-02-28T16:18:50.351Z,45.09
2023-02-28T16:20:53.078Z,48.04
2023-02-28T16:22:56.509Z,48.59
2023-02-28T16:24:59.258Z,48.35
2023-02-28T16:27:02.371Z,48.30
2023-02-28T16:29:05.852Z,49.47
2023-02-28T16:31:09.432Z,50.33
2023-02-28T16:33:13.520Z,50.77
2023-02-28T16:35:16.486Z,57.16
2023-02-28T16:37:20.731Z,53.91
2023-02-28T16:39:23.924Z,54.82
2023-02-28T16:41:30.032Z,54.75
2023-02-28T16:43:33.338Z,55.43
2023-02-28T16:45:36.393Z,56.39
2023-02-28T16:47:39.382Z,56.75
2023-02-28T16:49:44.149Z,57.30
2023-02-28T16:51:46.873Z,59.01
2023-02-28T16:53:49.802Z,59.37
2023-02-28T16:55:52.802Z,60.04
2023-02-28T16:57:57.222Z,60.54
2023-02-28T16:59:59.931Z,60.20
2023-02-28T17:02:02.727Z,61.26
2023-02-28T17:04:05.761Z,62.62
2023-02-28T17:06:19.829Z,63.24
2023-02-28T17:08:22.595Z,63.19
2023-02-28T17:10:27.363Z,64.29
2023-02-28T17:12:30.141Z,65.21
2023-02-28T17:14:33.335Z,66.13
2023-02-28T17:16:40.811Z,68.03
2023-02-28T17:18:43.930Z,67.06
2023-02-28T17:20:46.838Z,67.20
2023-02-28T17:22:51.282Z,68.03
2023-02-28T17:24:56.448Z,68.42
2023-02-28T17:26:59.353Z,69.04
2023-02-28T17:29:02.306Z,69.90
2023-02-28T17:31:05.164Z,70.22
2023-02-28T17:33:07.917Z,70.75
2023-02-28T17:35:11.613Z,70.44
2023-02-28T17:37:14.686Z,70.05
2023-02-28T17:39:24.937Z,71.16
2023-02-28T17:41:28.240Z,71.99
2023-02-28T17:43:31.006Z,71.97
2023-02-28T17:45:35.685Z,72.16
2023-02-28T17:47:38.532Z,72.80
2023-02-28T17:49:41.284Z,72.28
2023-02-28T17:51:44.047Z,72.39
2023-02-28T17:53:46.987Z,72.93
2023-02-28T17:55:51.155Z,73.34
2023-02-28T17:57:53.934Z,73.00
2023-02-28T17:59:56.619Z,73.96
2023-02-28T18:01:59.383Z,75.28
2023-02-28T18:04:02.120Z,75.57
2023-02-28T18:06:05.389Z,75.75
2023-02-28T18:08:10.316Z,76.50
2023-02-28T18:10:16.924Z,76.23
2023-02-28T18:12:21.351Z,76.28
2023-02-28T18:14:26.303Z,76.91
2023-02-28T18:16:30.248Z,77.45
2023-02-28T18:18:33.166Z,78.41
2023-02-28T18:20:36.117Z,78.70
2023-02-28T18:22:39.865Z,77.98
2023-02-28T18:24:42.548Z,77.29
2023-02-28T18:26:45.565Z,78.18
2023-02-28T18:28:49.705Z,78.48
2023-02-28T18:30:52.462Z,79.45
2023-02-28T18:32:55.222Z,80.11
2023-02-28T18:34:57.987Z,80.56
2023-02-28T18:37:00.817Z,80.92
2023-02-28T18:39:03.621Z,81.69
2023-02-28T18:41:07.475Z,81.73
2023-02-28T18:43:10.801Z,81.89
2023-02-28T18:45:15.024Z,82.07
2023-02-28T18:47:17.784Z,82.42
2023-02-28T18:49:20.653Z,82.65
2023-02-28T18:51:26.036Z,82.23
2023-02-28T18:53:28.776Z,82.85
2023-02-28T18:55:32.765Z,82.25
2023-02-28T18:57:35.544Z,82.80
2023-02-28T18:59:38.333Z,83.39
2023-02-28T19:01:42.446Z,84.37
2023-02-28T19:03:46.080Z,84.48
2023-02-28T19:05:50.181Z,83.81
2023-02-28T19:07:53.744Z,84.58
2023-02-28T19:09:56.497Z,84.68
2023-02-28T19:11:59.219Z,83.77
2023-02-28T19:14:02.624Z,84.72
2023-02-28T19:16:07.239Z,85.51
2023-02-28T19:18:11.442Z,85.16
2023-02-28T19:20:14.660Z,86.16
2023-02-28T19:22:17.450Z,85.76
2023-02-28T19:24:20.503Z,86.15
2023-02-28T19:26:25.784Z,87.11
2023-02-28T19:28:30.565Z,86.23
2023-02-28T19:30:33.373Z,86.67
2023-02-28T19:32:36.442Z,85.66
2023-02-28T19:34:40.690Z,85.81
2023-02-28T19:36:43.474Z,85.64
2023-02-28T19:38:46.402Z,85.07
2023-02-28T19:40:49.212Z,85.54
2023-02-28T19:42:51.935Z,85.46
2023-02-28T19:44:54.679Z,86.55
2023-02-28T19:46:57.406Z,87.57
2023-02-28T19:49:00.175Z,87.22
2023-02-28T19:51:06.255Z,86.91
2023-02-28T19:53:09.145Z,86.95
2023-02-28T19:55:12.146Z,87.55
2023-02-28T19:57:14.917Z,89.14
2023-02-28T19:59:21.971Z,89.78
2023-02-28T20:01:33.709Z,89.60
2023-02-28T20:03:36.577Z,90.42
2023-02-28T20:05:39.409Z,91.02
2023-02-28T20:07:43.697Z,92.06
2023-02-28T20:09:46.712Z,92.75
2023-02-28T20:11:50.538Z,91.94
2023-02-28T20:13:54.310Z,92.61
2023-02-28T20:16:00.284Z,93.58
2023-02-28T20:18:03.141Z,94.31
2023-02-28T20:20:08.954Z,93.16
2023-02-28T20:22:12.219Z,92.31
2023-02-28T20:24:16.471Z,91.42
2023-02-28T20:26:20.185Z,92.04
2023-02-28T20:28:22.941Z,92.60
2023-02-28T20:30:25.913Z,91.31
2023-02-28T20:32:28.885Z,93.38
2023-02-28T20:34:31.648Z,92.88
2023-02-28T20:36:34.472Z,94.08
2023-02-28T20:38:37.592Z,93.80
2023-02-28T20:40:41.749Z,94.11
2023-02-28T20:42:44.569Z,93.91
2023-02-28T20:44:47.324Z,92.31
2023-02-28T20:46:50.074Z,91.81
2023-02-28T20:48:52.908Z,91.35
2023-02-28T20:50:57.581Z,92.39
2023-02-28T20:53:00.343Z,93.50
2023-02-28T20:55:03.113Z,94.00
2023-02-28T20:57:07.189Z,94.51
2023-02-28T20:59:11.954Z,96.41
2023-02-28T21:01:17.155Z,97.29
2023-02-28T21:03:20.037Z,97.92
2023-02-28T21:05:22.958Z,98.37
2023-02-28T21:07:26.335Z,99.97
2023-02-28T21:09:29.081Z,99.56
2023-02-28T21:11:35.013Z,99.02
2023-02-28T21:13:39.570Z,99.50
2023-02-28T21:15:42.389Z,99.80
2023-02-28T21:17:48.014Z,98.89
2023-02-28T21:19:50.800Z,99.57
2023-02-28T21:21:56.212Z,100.00
2023-02-28T21:23:59.062Z,99.97
2023-02-28T21:26:05.807Z,100.00
2023-02-28T21:28:08.522Z,100.00
2023-02-28T21:30:13.256Z,100.00
2023-02-28T21:32:16.158Z,99.17
2023-02-28T21:34:19.197Z,98.73
2023-02-28T21:36:24.614Z,100.00
2023-02-28T21:38:27.385Z,100.00
2023-02-28T21:40:30.117Z,100.00
2023-02-28T21:42:33.110Z,100.00
2023-02-28T21:44:35.859Z,100.00
2023-02-28T21:46:40.121Z,100.00
2023-02-28T21:48:43.304Z,100.00
2023-02-28T21:50:56.534Z,100.00
2023-02-28T21:52:59.303Z,100.00
2023-02-28T21:55:02.066Z,100.00
2023-02-28T21:57:05.410Z,100.00
2023-02-28T21:59:09.696Z,100.00
2023-02-28T22:01:14.202Z,100.00
2023-02-28T22:03:18.274Z,100.00
2023-02-28T22:05:21.327Z,100.00
2023-02-28T22:07:24.086Z,100.00
2023-02-28T22:09:27.983Z,100.00
2023-02-28T22:11:30.757Z,100.00
2023-02-28T22:13:33.473Z,100.00
2023-02-28T22:15:37.210Z,99.51
2023-02-28T22:17:40.063Z,100.00
2023-02-28T22:19:44.527Z,100.00
2023-02-28T22:21:47.591Z,100.00
2023-02-28T22:23:50.986Z,100.00
2023-02-28T22:25:54.703Z,100.00
2023-02-28T22:27:57.416Z,100.00
2023-02-28T22:30:00.219Z,100.00
2023-02-28T22:32:03.016Z,100.00
2023-02-28T22:34:08.679Z,100.00
2023-02-28T22:36:14.762Z,100.00
2023-02-28T22:38:17.604Z,100.00
2023-02-28T22:40:20.597Z,100.00
2023-02-28T22:42:23.411Z,100.00
2023-02-28T22:44:26.183Z,100.00
2023-02-28T22:46:31.144Z,100.00
2023-02-28T22:48:34.884Z,100.00
2023-02-28T22:50:37.720Z,100.00
2023-02-28T22:52:42.457Z,100.00
2023-02-28T22:54:45.225Z,100.00
2023-02-28T22:56:48.043Z,100.00
2023-02-28T22:58:51.391Z,100.00
2023-02-28T23:00:55.684Z,100.00
2023-02-28T23:02:58.451Z,100.00
2023-02-28T23:05:01.229Z,100.00
2023-02-28T23:07:04.666Z,100.00
2023-02-28T23:09:12.104Z,100.00
2023-02-28T23:11:20.008Z,100.00
2023-02-28T23:13:23.059Z,100.00
2023-02-28T23:15:25.833Z,100.00
2023-02-28T23:17:28.608Z,100.00
2023-02-28T23:19:32.314Z,100.00
2023-02-28T23:21:35.567Z,100.00
2023-02-28T23:23:38.319Z,100.00
2023-02-28T23:25:43.487Z,100.00
2023-02-28T23:27:46.255Z,100.00
2023-02-28T23:29:49.026Z,100.00
2023-02-28T23:31:52.634Z,100.00
2023-02-28T23:33:56.815Z,100.00
2023-02-28T23:36:03.969Z,100.00
2023-02-28T23:38:06.721Z,100.00
2023-02-28T23:40:13.038Z,100.00
2023-02-28T23:42:17.176Z,100.00
2023-02-28T23:44:20.161Z,100.00
2023-02-28T23:46:23.353Z,100.00
2023-02-28T23:48:26.158Z,100.00
2023-02-28T23:50:28.863Z,100.00
2023-02-28T23:52:31.977Z,100.00
2023-02-28T23:54:35.419Z,100.00
2023-02-28T23:56:38.242Z,100.00
2023-02-28T23:58:42.749Z,100.00
